Time;durP1;ratioP1;P1;durP2;ratioP2;P2;SDS_P1;SDS_P2;PMS_P1;PMS_P2;Temp;Humidity;BMP_temperature;BMP_pressure;BME280_temperature;BME280_humidity;BME280_pressure;Samples;Min_cycle;Max_cycle;Signal;HPM_P1;HPM_P2
2020/12/08 00:02:20;;;;;;;;;;;;;;;3.87;73.98;99184.84;5076646;28;19978;-68
2020/12/08 00:04:46;;;;;;;;;;;;;;;3.84;73.98;99182.53;5076675;28;19955;-68
2020/12/08 00:07:12;;;;;;;;;;;;;;;3.84;74.30;99174.44;5059258;28;19946;-68
2020/12/08 00:09:38;;;;;;;;;;;;;;;3.74;74.73;99174.00;5075917;28;19931;-68
2020/12/08 00:12:05;;;;;;;;;;;;;;;3.64;75.06;99178.88;5067711;28;19924;-68
2020/12/08 00:14:31;;;;;;;;;;;;;;;3.65;74.95;99175.16;5056565;28;19960;-68
2020/12/08 00:16:58;;;;;;;;;;;;;;;3.58;75.18;99171.59;5075426;28;19946;-68
2020/12/08 00:19:24;;;;;;;;;;;;;;;3.58;75.65;99164.34;5059499;28;20390;-68
2020/12/08 00:21:50;;;;;;;;;;;;;;;3.63;75.25;99158.38;5058885;28;19933;-68
2020/12/08 00:24:16;;;;;;;;;;;;;;;3.67;75.52;99148.88;5058811;28;19924;-68
2020/12/08 00:26:42;;;;;;;;;;;;;;;3.60;75.22;99153.38;5077787;28;19946;-68
2020/12/08 00:29:09;;;;;;;;;;;;;;;3.53;75.55;99147.09;5077106;28;19931;-68
2020/12/08 00:31:36;;;;;;;;;;;;;;;3.54;76.01;99146.91;5077756;28;19924;-68
2020/12/08 00:34:02;;;;;;;;;;;;;;;3.57;75.89;99146.53;5075700;28;19924;-68
2020/12/08 00:36:28;;;;;;;;;;;;;;;3.60;75.87;99151.50;5059623;28;19960;-67
2020/12/08 00:38:54;;;;;;;;;;;;;;;3.65;75.44;99150.94;5075387;28;20394;-68
2020/12/08 00:41:21;;;;;;;;;;;;;;;3.65;75.31;99148.22;5064056;28;19925;-68
2020/12/08 00:43:47;;;;;;;;;;;;;;;3.74;75.07;99155.13;5067515;28;20245;-68
2020/12/08 00:46:14;;;;;;;;;;;;;;;3.77;74.96;99152.03;5072806;28;19955;-68
2020/12/08 00:48:41;;;;;;;;;;;;;;;3.77;74.75;99152.03;5039793;28;19928;-68
2020/12/08 00:51:07;;;;;;;;;;;;;;;3.75;74.98;99147.88;5058084;28;19925;-68
2020/12/08 00:53:33;;;;;;;;;;;;;;;3.82;74.65;99146.88;5042337;28;19967;-68
2020/12/08 00:56:07;;;;;;;;;;;;;;;3.89;74.69;99139.66;5059012;28;19924;-68
2020/12/08 00:58:33;;;;;;;;;;;;;;;3.90;74.35;99145.88;5058920;28;19978;-68
2020/12/08 01:01:00;;;;;;;;;;;;;;;3.98;74.41;99137.63;5051117;28;19935;-68
2020/12/08 01:03:26;;;;;;;;;;;;;;;3.95;73.72;99138.84;5075051;28;19924;-68
2020/12/08 01:05:53;;;;;;;;;;;;;;;3.97;74.17;99142.19;5075418;28;19984;-68
2020/12/08 01:08:20;;;;;;;;;;;;;;;3.95;73.78;99138.03;5075617;28;20000;-68
2020/12/08 01:10:46;;;;;;;;;;;;;;;3.88;73.80;99139.84;5057923;28;19928;-68
2020/12/08 01:13:12;;;;;;;;;;;;;;;3.91;73.77;99132.19;5048109;28;19924;-68
2020/12/08 01:15:39;;;;;;;;;;;;;;;3.93;74.02;99135.53;5058510;28;19974;-68
2020/12/08 01:18:05;;;;;;;;;;;;;;;3.89;74.02;99136.13;5058498;28;19932;-68
2020/12/08 01:20:34;;;;;;;;;;;;;;;3.86;73.66;99129.28;5074446;28;19924;-68
2020/12/08 01:23:01;;;;;;;;;;;;;;;3.87;74.29;99136.31;5058024;28;20405;-68
2020/12/08 01:25:27;;;;;;;;;;;;;;;3.87;74.14;99128.25;5057727;28;19924;-69
2020/12/08 01:27:54;;;;;;;;;;;;;;;3.91;74.27;99137.59;5024868;28;20402;-68
2020/12/08 01:30:20;;;;;;;;;;;;;;;3.79;74.33;99117.66;5058019;28;19983;-68
2020/12/08 01:32:48;;;;;;;;;;;;;;;3.84;74.45;99112.47;5042431;28;19925;-68
2020/12/08 01:35:20;;;;;;;;;;;;;;;3.85;74.70;99122.22;5043137;28;19924;-68
2020/12/08 01:37:54;;;;;;;;;;;;;;;3.80;74.44;99119.31;5057443;28;19934;-68
2020/12/08 01:40:21;;;;;;;;;;;;;;;3.73;74.51;99117.63;5040108;28;19924;-68
2020/12/08 01:42:47;;;;;;;;;;;;;;;3.79;74.21;99112.25;5072174;28;19929;-68
2020/12/08 01:45:14;;;;;;;;;;;;;;;3.73;74.47;99102.28;5056695;28;19960;-68
2020/12/08 01:47:41;;;;;;;;;;;;;;;3.71;74.59;99098.94;5056163;28;19928;-68
2020/12/08 01:50:09;;;;;;;;;;;;;;;3.71;74.75;99104.34;5056036;28;19924;-68
2020/12/08 01:52:36;;;;;;;;;;;;;;;3.73;74.51;99104.97;5054052;28;19924;-68
2020/12/08 01:55:05;;;;;;;;;;;;;;;3.83;74.07;99099.19;5054878;28;19925;-69
2020/12/08 01:57:37;;;;;;;;;;;;;;;3.77;74.49;99108.09;5039355;28;19931;-68
2020/12/08 02:00:08;;;;;;;;;;;;;;;3.73;74.84;99096.88;5056641;28;19928;-68
2020/12/08 02:02:40;;;;;;;;;;;;;;;3.77;74.33;99100.03;5057495;28;20405;-68
2020/12/08 02:05:12;;;;;;;;;;;;;;;3.74;74.42;99103.94;5057354;28;19986;-68
2020/12/08 02:07:43;;;;;;;;;;;;;;;3.74;74.14;99103.13;5056124;28;19958;-68
2020/12/08 02:10:10;;;;;;;;;;;;;;;3.74;74.38;99100.41;5040159;28;19928;-68
2020/12/08 02:12:36;;;;;;;;;;;;;;;3.70;74.01;99105.38;5045846;28;19925;-68
2020/12/08 02:15:03;;;;;;;;;;;;;;;3.71;74.18;99098.94;5039486;28;19924;-68
2020/12/08 02:17:32;;;;;;;;;;;;;;;3.71;73.99;99107.03;5039804;28;20332;-68
2020/12/08 02:19:58;;;;;;;;;;;;;;;3.72;74.03;99103.31;5023343;28;19924;-68
2020/12/08 02:22:27;;;;;;;;;;;;;;;3.72;74.09;99105.16;5039638;28;19924;-68
2020/12/08 02:24:53;;;;;;;;;;;;;;;3.72;74.53;99097.91;5039370;28;20161;-68
2020/12/08 02:27:20;;;;;;;;;;;;;;;3.77;74.26;99103.53;5038984;28;19924;-68
2020/12/08 02:29:50;;;;;;;;;;;;;;;3.77;73.86;99114.31;5056032;28;19924;-68
2020/12/08 02:32:17;;;;;;;;;;;;;;;3.77;74.31;99110.78;5023773;28;19931;-68
2020/12/08 02:34:44;;;;;;;;;;;;;;;3.75;74.80;99108.31;5055457;28;20015;-68
2020/12/08 02:37:10;;;;;;;;;;;;;;;3.81;74.10;99102.09;5055635;28;19928;-68
2020/12/08 02:39:44;;;;;;;;;;;;;;;3.78;74.39;99099.81;5056001;28;19924;-67
2020/12/08 02:42:10;;;;;;;;;;;;;;;3.75;74.78;99097.53;5054031;28;19928;-68
2020/12/08 02:44:36;;;;;;;;;;;;;;;3.81;74.38;99098.59;5039015;28;19931;-68
2020/12/08 02:47:04;;;;;;;;;;;;;;;3.79;74.99;99092.56;5039028;28;19928;-68
2020/12/08 02:49:32;;;;;;;;;;;;;;;3.70;75.11;99097.28;5050866;28;19925;-68
2020/12/08 02:51:58;;;;;;;;;;;;;;;3.65;75.64;99097.06;5039371;28;19924;-68
2020/12/08 02:54:30;;;;;;;;;;;;;;;3.63;75.33;99096.41;5072195;28;19928;-68
2020/12/08 02:57:00;;;;;;;;;;;;;;;3.61;75.45;99095.78;5038963;28;19924;-68
2020/12/08 02:59:30;;;;;;;;;;;;;;;3.65;75.40;99099.75;5040548;28;19925;-68
2020/12/08 03:01:58;;;;;;;;;;;;;;;3.62;75.44;99095.59;5039795;28;19928;-68
2020/12/08 03:04:29;;;;;;;;;;;;;;;3.63;75.80;99108.03;5040887;28;20402;-68
2020/12/08 03:06:55;;;;;;;;;;;;;;;3.73;75.32;99107.66;5039456;28;19932;-68
2020/12/08 03:09:23;;;;;;;;;;;;;;;3.64;75.58;99111.53;5055807;28;19928;-68
2020/12/08 03:11:50;;;;;;;;;;;;;;;3.64;75.63;99104.28;5053385;28;19925;-68
2020/12/08 03:14:20;;;;;;;;;;;;;;;3.55;76.34;99102.78;5072738;28;20451;-68
2020/12/08 03:16:49;;;;;;;;;;;;;;;3.53;76.10;99098.63;5059790;28;19928;-68
2020/12/08 03:19:15;;;;;;;;;;;;;;;3.55;76.14;99102.78;5043226;28;19971;-68
2020/12/08 03:21:43;;;;;;;;;;;;;;;3.54;76.05;99098.44;5059285;28;20049;-68
2020/12/08 03:24:21;;;;;;;;;;;;;;;3.62;76.05;99110.91;5086501;23;20032;-69
2020/12/08 03:26:48;;;;;;;;;;;;;;;3.55;76.65;99107.34;5064372;28;20393;-71
2020/12/08 03:29:15;;;;;;;;;;;;;;;3.61;76.09;99115.47;5037833;28;19956;-69
2020/12/08 03:31:41;;;;;;;;;;;;;;;3.58;76.63;99099.69;5064682;28;19983;-72
2020/12/08 03:34:07;;;;;;;;;;;;;;;3.54;76.58;99106.50;5057529;28;19978;-69
2020/12/08 03:36:38;;;;;;;;;;;;;;;3.58;76.20;99101.56;5040776;28;20350;-69
2020/12/08 03:39:06;;;;;;;;;;;;;;;3.53;76.96;99101.31;5055821;28;19952;-69
2020/12/08 03:41:36;;;;;;;;;;;;;;;3.57;76.54;99107.97;5072511;28;19971;-69
2020/12/08 03:44:06;;;;;;;;;;;;;;;3.62;76.86;99108.22;5072488;28;19932;-69
2020/12/08 03:46:33;;;;;;;;;;;;;;;3.66;76.38;99106.78;5052031;28;20395;-69
2020/12/08 03:49:00;;;;;;;;;;;;;;;3.64;76.54;99104.28;5047849;28;20142;-69
2020/12/08 03:51:27;;;;;;;;;;;;;;;3.65;76.75;99107.81;5036164;28;19925;-69
2020/12/08 03:54:00;;;;;;;;;;;;;;;3.63;76.43;99101.81;5063074;28;20366;-69
2020/12/08 03:56:30;;;;;;;;;;;;;;;3.68;76.83;99105.56;5055241;28;20379;-69
2020/12/08 03:59:03;;;;;;;;;;;;;;;3.79;76.35;99097.97;5054173;28;19924;-69
2020/12/08 04:01:30;;;;;;;;;;;;;;;3.70;76.12;99094.59;5041260;28;19931;-69
2020/12/08 04:03:58;;;;;;;;;;;;;;;3.78;76.36;99093.59;5056091;28;20599;-69
2020/12/08 04:06:25;;;;;;;;;;;;;;;3.72;76.29;99100.63;5055871;28;19935;-69
2020/12/08 04:08:54;;;;;;;;;;;;;;;3.65;76.95;99094.34;5055450;28;19962;-71
2020/12/08 04:11:27;;;;;;;;;;;;;;;3.71;76.60;99093.56;5038409;28;19928;-69
2020/12/08 04:13:55;;;;;;;;;;;;;;;3.69;76.93;99091.06;5071995;28;19931;-69
2020/12/08 04:16:21;;;;;;;;;;;;;;;3.72;76.79;99089.84;5035646;28;20381;-69
2020/12/08 04:18:51;;;;;;;;;;;;;;;3.73;76.92;99098.75;5070904;28;20027;-69
2020/12/08 04:21:22;;;;;;;;;;;;;;;3.72;77.04;99097.09;5072126;28;20271;-69
2020/12/08 04:23:49;;;;;;;;;;;;;;;3.70;77.10;99105.38;5055397;28;19960;-69
2020/12/08 04:26:15;;;;;;;;;;;;;;;3.75;77.27;99105.59;5076136;28;19932;-69
2020/12/08 04:28:45;;;;;;;;;;;;;;;3.69;77.05;99104.53;5040432;28;19924;-68
2020/12/08 04:31:13;;;;;;;;;;;;;;;3.74;77.09;99103.94;5057067;28;19932;-69
2020/12/08 04:33:40;;;;;;;;;;;;;;;3.96;76.20;99112.75;5066534;28;19971;-69
2020/12/08 04:36:11;;;;;;;;;;;;;;;3.83;76.97;99120.75;5055787;28;19932;-70
2020/12/08 04:38:38;;;;;;;;;;;;;;;3.75;77.13;99119.06;5054988;28;19974;-72
2020/12/08 04:41:09;;;;;;;;;;;;;;;3.77;77.06;99114.31;5073221;28;19978;-69
2020/12/08 04:43:39;;;;;;;;;;;;;;;3.81;77.13;99120.94;5063924;28;19929;-69
2020/12/08 04:46:05;;;;;;;;;;;;;;;3.88;76.83;99121.81;5059619;28;19924;-69
2020/12/08 04:48:32;;;;;;;;;;;;;;;3.89;77.01;99117.25;5072780;28;19936;-72
2020/12/08 04:50:58;;;;;;;;;;;;;;;3.87;76.84;99120.16;5039511;28;19991;-72
2020/12/08 04:53:24;;;;;;;;;;;;;;;3.84;77.33;99119.72;5071650;28;19925;-69
2020/12/08 04:55:51;;;;;;;;;;;;;;;3.87;77.11;99120.16;5072474;28;19974;-69
2020/12/08 04:58:17;;;;;;;;;;;;;;;3.92;77.14;99114.16;5050656;28;19924;-69
2020/12/08 05:00:44;;;;;;;;;;;;;;;3.91;76.91;99116.03;5034848;28;19964;-69
2020/12/08 05:03:11;;;;;;;;;;;;;;;3.91;77.01;99113.34;5069818;28;19983;-69
2020/12/08 05:05:41;;;;;;;;;;;;;;;3.86;76.92;99118.50;5054637;28;19924;-69
2020/12/08 05:08:11;;;;;;;;;;;;;;;3.87;77.32;99113.94;5054161;28;19932;-69
2020/12/08 05:10:37;;;;;;;;;;;;;;;3.91;77.54;99120.59;5055014;28;19928;-69
2020/12/08 05:13:07;;;;;;;;;;;;;;;3.90;77.72;99117.06;5054407;28;19931;-71
2020/12/08 05:15:34;;;;;;;;;;;;;;;3.88;77.24;99115.59;5070915;28;19925;-69
2020/12/08 05:18:07;;;;;;;;;;;;;;;3.84;77.71;99117.84;5054345;28;19924;-69
2020/12/08 05:20:34;;;;;;;;;;;;;;;3.87;78.12;99128.25;5071101;28;20716;-69
2020/12/08 05:23:00;;;;;;;;;;;;;;;3.86;77.93;99123.88;5054332;28;20337;-69
2020/12/08 05:25:27;;;;;;;;;;;;;;;3.88;77.59;99127.22;5065054;28;19932;-70
2020/12/08 05:27:54;;;;;;;;;;;;;;;3.89;77.61;99123.47;5045069;28;19947;-70
2020/12/08 05:30:21;;;;;;;;;;;;;;;3.87;77.62;99119.31;5071826;28;20398;-69
2020/12/08 05:32:48;;;;;;;;;;;;;;;3.91;77.75;99124.13;5050234;28;19928;-70
2020/12/08 05:35:15;;;;;;;;;;;;;;;3.88;78.66;99127.22;5067023;28;19971;-70
2020/12/08 05:37:47;;;;;;;;;;;;;;;3.89;77.89;99126.19;5070176;28;20467;-70
2020/12/08 05:40:14;;;;;;;;;;;;;;;3.90;78.48;99127.84;5053932;28;19924;-70
2020/12/08 05:42:42;;;;;;;;;;;;;;;3.91;77.71;99126.81;5070138;28;20398;-69
2020/12/08 05:45:09;;;;;;;;;;;;;;;3.93;77.88;99132.00;5070505;28;19924;-70
2020/12/08 05:47:43;;;;;;;;;;;;;;;3.99;77.75;99123.97;5053324;28;19945;-70
2020/12/08 05:50:09;;;;;;;;;;;;;;;4.02;77.69;99126.25;5070505;28;19924;-71
2020/12/08 05:52:36;;;;;;;;;;;;;;;4.00;77.73;99125.63;5070272;28;19924;-69
2020/12/08 05:55:09;;;;;;;;;;;;;;;4.06;77.70;99128.53;5070391;28;19946;-69
2020/12/08 05:57:35;;;;;;;;;;;;;;;4.14;77.41;99125.69;5069603;28;19924;-69
2020/12/08 06:00:02;;;;;;;;;;;;;;;4.13;77.46;99129.41;5055969;28;19933;-69
2020/12/08 06:02:37;;;;;;;;;;;;;;;4.12;77.29;99125.06;5067275;28;20301;-70
2020/12/08 06:05:04;;;;;;;;;;;;;;;4.10;77.86;99125.25;5070444;28;19925;-70
2020/12/08 06:07:31;;;;;;;;;;;;;;;4.08;77.85;99121.09;5069889;28;19924;-70
2020/12/08 06:10:04;;;;;;;;;;;;;;;4.27;77.63;99112.22;5066394;28;19931;-69
2020/12/08 06:12:31;;;;;;;;;;;;;;;4.52;76.12;99117.91;5061639;28;19928;-69
2020/12/08 06:14:58;;;;;;;;;;;;;;;4.47;76.04;99132.03;5037030;28;19933;-70
2020/12/08 06:17:24;;;;;;;;;;;;;;;4.30;77.12;99125.31;5027221;28;20341;-69
2020/12/08 06:19:50;;;;;;;;;;;;;;;4.20;77.26;99119.47;5049448;28;19951;-70
2020/12/08 06:22:18;;;;;;;;;;;;;;;4.05;78.04;99130.41;5053684;28;19933;-70
2020/12/08 06:24:48;;;;;;;;;;;;;;;3.96;78.58;99132.44;5070439;28;20057;-69
2020/12/08 06:27:21;;;;;;;;;;;;;;;4.10;78.51;99141.44;5066289;28;19925;-69
2020/12/08 06:29:51;;;;;;;;;;;;;;;4.12;78.49;99133.16;5056135;28;20022;-70
2020/12/08 06:32:21;;;;;;;;;;;;;;;4.21;78.03;99140.00;5039792;28;19924;-69
2020/12/08 06:34:47;;;;;;;;;;;;;;;4.16;77.64;99140.59;5069749;28;19932;-70
2020/12/08 06:37:13;;;;;;;;;;;;;;;4.02;78.31;99139.72;5052709;28;19956;-70
2020/12/08 06:39:40;;;;;;;;;;;;;;;4.07;78.42;99151.78;5069412;28;19932;-70
2020/12/08 06:42:13;;;;;;;;;;;;;;;3.99;78.95;99144.69;5053085;28;19925;-70
2020/12/08 06:44:39;;;;;;;;;;;;;;;3.97;78.79;99135.97;5075314;28;19951;-70
2020/12/08 06:47:05;;;;;;;;;;;;;;;4.02;79.13;99155.91;5073780;28;19931;-70
2020/12/08 06:49:42;;;;;;;;;;;;;;;4.06;78.84;99155.50;5053162;28;20465;-70
2020/12/08 06:52:08;;;;;;;;;;;;;;;4.02;78.66;99146.97;5053395;28;20456;-70
2020/12/08 06:54:35;;;;;;;;;;;;;;;3.94;79.43;99147.97;5069634;28;20371;-70
2020/12/08 06:57:01;;;;;;;;;;;;;;;3.68;80.82;99145.97;5036361;28;20445;-70
2020/12/08 06:59:28;;;;;;;;;;;;;;;3.67;80.70;99144.31;5033872;28;19932;-70
2020/12/08 07:01:55;;;;;;;;;;;;;;;3.69;80.87;99146.81;5067424;28;19960;-70
2020/12/08 07:04:21;;;;;;;;;;;;;;;3.72;80.80;99143.72;5047373;28;20403;-70
2020/12/08 07:06:48;;;;;;;;;;;;;;;3.74;80.40;99140.84;5064327;28;19924;-70
2020/12/08 07:09:14;;;;;;;;;;;;;;;3.55;81.12;99143.19;5051735;28;19925;-70
2020/12/08 07:11:40;;;;;;;;;;;;;;;3.58;81.35;99147.34;5051279;28;19960;-70
2020/12/08 07:14:06;;;;;;;;;;;;;;;3.66;81.72;99157.97;5065980;28;19928;-70
2020/12/08 07:16:36;;;;;;;;;;;;;;;3.95;80.51;99146.94;5084732;28;20008;-70
2020/12/08 07:19:03;;;;;;;;;;;;;;;4.04;79.84;99144.91;5052720;28;19932;-70
2020/12/08 07:21:29;;;;;;;;;;;;;;;4.35;78.82;99144.41;5053049;28;19956;-70
2020/12/08 07:24:08;;;;;;;;;;;;;;;4.38;77.89;99144.00;5065734;28;19925;-70
2020/12/08 07:26:35;;;;;;;;;;;;;;;4.79;76.69;99148.47;5065197;28;19928;-69
2020/12/08 07:29:01;;;;;;;;;;;;;;;5.04;75.24;99154.94;5070534;28;19928;-69
2020/12/08 07:31:31;;;;;;;;;;;;;;;5.51;73.73;99144.97;5069227;28;19960;-69
2020/12/08 07:33:58;;;;;;;;;;;;;;;6.02;71.46;99147.78;5052535;28;19931;-69
2020/12/08 07:36:32;;;;;;;;;;;;;;;6.60;68.94;99145.84;5069203;28;19924;-72
2020/12/08 07:39:00;;;;;;;;;;;;;;;6.89;67.71;99151.75;5068181;28;19924;-69
2020/12/08 07:41:27;;;;;;;;;;;;;;;6.99;67.20;99152.91;5066297;28;19929;-71
2020/12/08 07:43:53;;;;;;;;;;;;;;;7.54;65.34;99146.84;5065270;28;20043;-69
2020/12/08 07:46:29;;;;;;;;;;;;;;;7.86;63.91;99167.38;5035079;28;19968;-69
2020/12/08 07:49:05;;;;;;;;;;;;;;;8.24;62.14;99164.47;5069794;28;19986;-69
2020/12/08 07:51:33;;;;;;;;;;;;;;;8.39;61.74;99166.81;5068833;28;19928;-69
2020/12/08 07:54:01;;;;;;;;;;;;;;;8.82;60.44;99161.22;5053046;28;20022;-70
2020/12/08 07:56:28;;;;;;;;;;;;;;;9.10;59.40;99155.16;5039874;28;19925;-70
2020/12/08 07:58:54;;;;;;;;;;;;;;;9.28;58.88;99160.53;5071675;28;20410;-70
2020/12/08 08:01:20;;;;;;;;;;;;;;;9.75;56.94;99157.84;5072550;28;19924;-70
2020/12/08 08:03:47;;;;;;;;;;;;;;;9.82;56.86;99158.56;5056004;28;19924;-70
2020/12/08 08:06:15;;;;;;;;;;;;;;;10.38;55.45;99155.22;5056220;28;19935;-70
2020/12/08 08:08:43;;;;;;;;;;;;;;;10.00;56.04;99169.31;5073111;28;19929;-70
2020/12/08 08:11:10;;;;;;;;;;;;;;;10.73;53.88;99157.81;5082164;28;20106;-71
2020/12/08 08:13:36;;;;;;;;;;;;;;;11.05;52.44;99165.50;5076911;28;19978;-70
2020/12/08 08:16:03;;;;;;;;;;;;;;;11.58;51.62;99162.31;5072097;28;19970;-71
2020/12/08 08:18:32;;;;;;;;;;;;;;;11.78;50.02;99172.75;5059758;28;19924;-71
2020/12/08 08:20:59;;;;;;;;;;;;;;;12.51;48.40;99168.84;5063409;28;19953;-71
2020/12/08 08:23:25;;;;;;;;;;;;;;;12.80;47.20;99160.44;5072351;28;19925;-71
2020/12/08 08:25:52;;;;;;;;;;;;;;;12.89;47.31;99164.34;5055270;28;20607;-71
2020/12/08 08:28:19;;;;;;;;;;;;;;;12.40;48.21;99167.91;5072863;28;20459;-71
2020/12/08 08:30:46;;;;;;;;;;;;;;;13.01;46.56;99167.78;5052104;28;19924;-71
2020/12/08 08:33:14;;;;;;;;;;;;;;;12.68;47.06;99175.06;5067023;28;19929;-71
2020/12/08 08:35:41;;;;;;;;;;;;;;;13.08;46.14;99173.88;5073080;28;19970;-71
2020/12/08 08:38:07;;;;;;;;;;;;;;;13.24;45.80;99166.66;5055582;28;19978;-71
2020/12/08 08:40:34;;;;;;;;;;;;;;;13.74;44.59;99158.06;5071739;28;19925;-71
2020/12/08 08:43:00;;;;;;;;;;;;;;;12.43;47.47;99172.03;5055318;28;19925;-71
2020/12/08 08:45:27;;;;;;;;;;;;;;;12.92;47.01;99169.31;5088744;28;19924;-71
2020/12/08 08:47:54;;;;;;;;;;;;;;;14.01;43.69;99171.66;5051673;28;20019;-71
2020/12/08 08:50:20;;;;;;;;;;;;;;;14.12;43.21;99173.41;5046501;28;19924;-71
2020/12/08 08:52:47;;;;;;;;;;;;;;;13.02;46.02;99180.38;5073064;28;20027;-71
2020/12/08 08:55:15;;;;;;;;;;;;;;;14.21;42.80;99176.44;5044801;28;19935;-71
2020/12/08 08:57:41;;;;;;;;;;;;;;;14.47;42.21;99169.22;5056207;28;20110;-70
2020/12/08 09:00:09;;;;;;;;;;;;;;;13.93;43.38;99178.47;5074240;28;19947;-71
2020/12/08 09:02:35;;;;;;;;;;;;;;;14.62;41.52;99172.84;5055884;28;19925;-71
2020/12/08 09:05:03;;;;;;;;;;;;;;;14.38;41.96;99179.84;5057356;28;19932;-71
2020/12/08 09:07:30;;;;;;;;;;;;;;;14.14;42.07;99186.84;5037273;28;20390;-71
2020/12/08 09:09:56;;;;;;;;;;;;;;;14.30;41.68;99180.34;5070564;28;19967;-71
2020/12/08 09:12:23;;;;;;;;;;;;;;;14.51;41.22;99176.66;5051639;28;19924;-71
2020/12/08 09:14:51;;;;;;;;;;;;;;;14.50;41.25;99177.75;5051377;28;20283;-71
2020/12/08 09:17:19;;;;;;;;;;;;;;;14.05;41.93;99178.28;5071287;28;19986;-71
2020/12/08 09:19:45;;;;;;;;;;;;;;;13.45;43.71;99173.16;5070992;28;19972;-70
2020/12/08 09:22:12;;;;;;;;;;;;;;;13.90;42.71;99164.47;5088206;28;20380;-71
2020/12/08 09:24:38;;;;;;;;;;;;;;;14.73;40.94;99157.25;5090476;23;19932;-71
2020/12/08 09:27:06;;;;;;;;;;;;;;;15.01;40.35;99158.72;5055163;28;19991;-71
2020/12/08 09:29:35;;;;;;;;;;;;;;;15.39;39.24;99160.97;5050926;28;19966;-71
2020/12/08 09:32:02;;;;;;;;;;;;;;;15.63;38.45;99165.94;5068700;28;20030;-71
2020/12/08 09:34:28;;;;;;;;;;;;;;;16.92;35.99;99156.00;5044439;28;20015;-71
2020/12/08 09:36:55;;;;;;;;;;;;;;;17.24;35.43;99157.47;5049998;28;20022;-71
2020/12/08 09:39:22;;;;;;;;;;;;;;;16.74;35.87;99149.22;5058876;28;19925;-71
2020/12/08 09:41:48;;;;;;;;;;;;;;;17.37;35.16;99151.28;5077434;28;19931;-71
2020/12/08 09:44:15;;;;;;;;;;;;;;;17.83;33.84;99139.94;5058522;28;20013;-71
2020/12/08 09:46:41;;;;;;;;;;;;;;;17.73;34.35;99132.56;5041332;28;19955;-71
2020/12/08 09:49:09;;;;;;;;;;;;;;;18.40;32.79;99119.72;5057974;28;19931;-72
2020/12/08 09:51:36;;;;;;;;;;;;;;;17.43;34.06;99145.47;5074997;28;19924;-71
2020/12/08 09:54:03;;;;;;;;;;;;;;;17.77;33.24;99155.69;5074454;28;19930;-72
2020/12/08 09:56:29;;;;;;;;;;;;;;;17.79;32.97;99147.97;5074092;28;20571;-72
2020/12/08 09:58:56;;;;;;;;;;;;;;;17.34;34.09;99143.59;5054803;28;20426;-71
2020/12/08 10:01:29;;;;;;;;;;;;;;;16.62;35.29;99156.13;5073734;28;19924;-71
2020/12/08 10:03:55;;;;;;;;;;;;;;;16.66;35.23;99152.53;5059592;28;19935;-71
2020/12/08 10:06:22;;;;;;;;;;;;;;;16.88;35.33;99154.09;5058018;28;19975;-71
2020/12/08 10:08:48;;;;;;;;;;;;;;;17.82;33.19;99157.59;5054885;28;19925;-71
2020/12/08 10:11:15;;;;;;;;;;;;;;;17.48;33.67;99157.56;5034091;28;19964;-72
2020/12/08 10:13:50;;;;;;;;;;;;;;;17.09;34.00;99169.38;5043785;28;19924;-71
2020/12/08 10:16:27;;;;;;;;;;;;;;;16.45;35.62;99167.47;5076242;28;19940;-71
2020/12/08 10:18:54;;;;;;;;;;;;;;;15.65;37.07;99175.56;5058929;28;20267;-71
2020/12/08 10:21:22;;;;;;;;;;;;;;;14.39;39.50;99182.31;5056957;28;19928;-71
2020/12/08 10:23:48;;;;;;;;;;;;;;;12.87;43.20;99199.34;5075035;28;20512;-71
2020/12/08 10:26:15;;;;;;;;;;;;;;;12.25;44.85;99194.19;5073282;28;20000;-70
2020/12/08 10:28:41;;;;;;;;;;;;;;;11.43;46.89;99194.81;5055445;28;19931;-71
2020/12/08 10:31:08;;;;;;;;;;;;;;;11.03;48.77;99203.06;5075509;28;19995;-71
2020/12/08 10:33:34;;;;;;;;;;;;;;;12.15;45.73;99202.22;5057872;28;20035;-70
2020/12/08 10:36:01;;;;;;;;;;;;;;;12.56;44.00;99201.69;5075328;28;20452;-71
2020/12/08 10:38:28;;;;;;;;;;;;;;;13.22;42.43;99197.00;5053352;28;19953;-71
2020/12/08 10:40:54;;;;;;;;;;;;;;;14.15;40.58;99191.22;5034222;28;19925;-71
2020/12/08 10:43:21;;;;;;;;;;;;;;;15.37;37.47;99189.78;5069613;28;19925;-71
2020/12/08 10:46:02;;;;;;;;;;;;;;;15.04;38.03;99180.94;5061047;28;19955;-71
2020/12/08 10:48:29;;;;;;;;;;;;;;;14.70;38.54;99182.47;5055874;28;19924;-71
2020/12/08 10:50:55;;;;;;;;;;;;;;;14.86;38.48;99189.69;5072560;28;19932;-71
2020/12/08 10:53:22;;;;;;;;;;;;;;;14.67;38.70;99186.59;5072429;28;19974;-71
2020/12/08 10:55:48;;;;;;;;;;;;;;;14.67;38.85;99186.59;5055632;28;19932;-71
2020/12/08 10:58:15;;;;;;;;;;;;;;;14.81;38.66;99180.59;5039151;28;20175;-71
2020/12/08 11:00:41;;;;;;;;;;;;;;;14.50;38.72;99190.63;5055289;28;19924;-71
2020/12/08 11:03:08;;;;;;;;;;;;;;;13.57;40.75;99190.22;5036211;28;20018;-71
2020/12/08 11:05:34;;;;;;;;;;;;;;;13.23;42.12;99193.19;5052262;28;19929;-71
2020/12/08 11:08:01;;;;;;;;;;;;;;;13.53;41.38;99191.81;5035837;28;19924;-71
2020/12/08 11:10:28;;;;;;;;;;;;;;;13.16;42.27;99187.13;5070485;28;19999;-71
2020/12/08 11:12:55;;;;;;;;;;;;;;;14.34;39.33;99179.53;5074664;28;19936;-70
2020/12/08 11:15:21;;;;;;;;;;;;;;;15.01;38.11;99175.16;5074367;28;19932;-71
2020/12/08 11:17:48;;;;;;;;;;;;;;;15.85;36.09;99166.50;5053190;28;19975;-71
2020/12/08 11:20:14;;;;;;;;;;;;;;;15.56;36.78;99168.13;5069184;28;19929;-71
2020/12/08 11:22:41;;;;;;;;;;;;;;;15.40;36.97;99170.84;5066330;28;19955;-71
2020/12/08 11:25:07;;;;;;;;;;;;;;;15.62;36.59;99175.28;5056063;28;19924;-71
2020/12/08 11:27:33;;;;;;;;;;;;;;;14.71;38.28;99181.38;5073106;28;19935;-71
2020/12/08 11:30:00;;;;;;;;;;;;;;;14.25;39.50;99177.56;5036483;28;19955;-71
2020/12/08 11:32:28;;;;;;;;;;;;;;;14.22;39.66;99178.91;5057643;28;19925;-71
2020/12/08 11:34:54;;;;;;;;;;;;;;;14.76;38.48;99181.41;5075998;28;19958;-71
2020/12/08 11:37:21;;;;;;;;;;;;;;;14.68;38.77;99177.25;5058338;28;19925;-71
2020/12/08 11:39:47;;;;;;;;;;;;;;;15.12;37.89;99170.53;5076435;28;19988;-70
2020/12/08 11:42:14;;;;;;;;;;;;;;;15.58;36.70;99168.72;5076421;28;19924;-71
2020/12/08 11:44:42;;;;;;;;;;;;;;;16.30;35.59;99170.25;5075905;28;19974;-71
2020/12/08 11:47:10;;;;;;;;;;;;;;;14.85;37.41;99176.25;5076205;28;19963;-71
2020/12/08 11:49:37;;;;;;;;;;;;;;;13.70;40.45;99181.59;5075276;28;19932;-71
2020/12/08 11:52:05;;;;;;;;;;;;;;;12.99;42.28;99184.44;5056485;28;19924;-71
2020/12/08 11:54:32;;;;;;;;;;;;;;;12.95;42.87;99193.41;5057099;28;19952;-71
2020/12/08 11:56:59;;;;;;;;;;;;;;;13.07;42.72;99194.94;5055617;28;20052;-71
2020/12/08 11:59:25;;;;;;;;;;;;;;;13.52;41.78;99196.47;5075660;28;19928;-70
2020/12/08 12:01:51;;;;;;;;;;;;;;;13.45;41.65;99195.06;5075592;28;20293;-71
2020/12/08 12:04:18;;;;;;;;;;;;;;;13.47;41.32;99187.41;5058563;28;20359;-70
2020/12/08 12:06:44;;;;;;;;;;;;;;;12.98;42.37;99191.00;5076667;28;19924;-70
2020/12/08 12:09:11;;;;;;;;;;;;;;;12.31;43.90;99190.44;5058378;28;19960;-71
2020/12/08 12:11:37;;;;;;;;;;;;;;;11.69;45.99;99196.06;5057842;28;20027;-71
2020/12/08 12:14:05;;;;;;;;;;;;;;;11.47;46.83;99192.38;5075531;28;19974;-70
2020/12/08 12:16:31;;;;;;;;;;;;;;;10.88;48.63;99197.31;5059238;28;20398;-71
2020/12/08 12:18:58;;;;;;;;;;;;;;;11.78;46.64;99201.97;5075032;28;19943;-70
2020/12/08 12:21:25;;;;;;;;;;;;;;;12.85;43.69;99206.97;5075105;28;20023;-70
2020/12/08 12:23:51;;;;;;;;;;;;;;;14.49;40.11;99192.53;5058498;28;19931;-70
2020/12/08 12:26:21;;;;;;;;;;;;;;;15.58;37.64;99185.19;5076233;28;19924;-71
2020/12/08 12:28:49;;;;;;;;;;;;;;;15.44;37.48;99184.84;5054064;28;19974;-71
2020/12/08 12:31:15;;;;;;;;;;;;;;;16.01;36.43;99184.59;5051173;28;19950;-70
2020/12/08 12:33:42;;;;;;;;;;;;;;;15.97;36.44;99189.00;5054969;28;19925;-71
2020/12/08 12:36:08;;;;;;;;;;;;;;;14.53;39.06;99177.22;5062788;28;19947;-70
2020/12/08 12:38:34;;;;;;;;;;;;;;;13.27;42.01;99183.41;5074497;28;20447;-71
2020/12/08 12:41:01;;;;;;;;;;;;;;;12.59;43.95;99195.72;5075345;28;19928;-71
2020/12/08 12:43:27;;;;;;;;;;;;;;;14.29;40.79;99187.72;5057831;28;19924;-71
2020/12/08 12:45:54;;;;;;;;;;;;;;;14.89;38.88;99174.59;5056907;28;19976;-71
2020/12/08 12:48:20;;;;;;;;;;;;;;;16.17;36.28;99170.84;5054115;28;19938;-70
2020/12/08 12:50:47;;;;;;;;;;;;;;;17.04;34.72;99172.16;5050407;28;19933;-70
2020/12/08 12:53:13;;;;;;;;;;;;;;;14.47;39.11;99175.53;5074870;28;19924;-71
2020/12/08 12:55:39;;;;;;;;;;;;;;;13.01;43.27;99178.72;5075931;28;19925;-70